createdAt,value
2023-01-19T00:01:45.175Z,5.82
2023-01-19T00:04:13.874Z,6.10
2023-01-19T00:06:42.706Z,6.22
2023-01-19T00:09:11.506Z,6.65
2023-01-19T00:11:40.416Z,6.70
2023-01-19T00:14:08.696Z,6.43
2023-01-19T00:16:37.445Z,5.82
2023-01-19T00:19:05.859Z,6.40
2023-01-19T00:21:34.564Z,6.75
2023-01-19T00:24:03.157Z,6.63
2023-01-19T00:26:31.348Z,6.43
2023-01-19T00:28:59.690Z,6.55
2023-01-19T00:31:30.813Z,6.53
2023-01-19T00:33:59.075Z,7.10
2023-01-19T00:36:27.692Z,6.72
2023-01-19T00:38:56.336Z,6.13
2023-01-19T00:41:45.086Z,6.88
2023-01-19T00:44:13.908Z,5.65
2023-01-19T00:46:42.509Z,5.82
2023-01-19T00:49:12.065Z,6.18
2023-01-19T00:51:40.912Z,5.57
2023-01-19T00:54:11.631Z,6.30
2023-01-19T00:56:40.332Z,5.60
2023-01-19T00:59:08.976Z,6.65
2023-01-19T01:01:44.988Z,6.32
2023-01-19T01:04:15.673Z,5.80
2023-01-19T01:06:44.461Z,5.55
2023-01-19T01:09:15.934Z,5.75
2023-01-19T01:11:45.057Z,5.45
2023-01-19T01:14:13.825Z,5.88
2023-01-19T01:16:42.920Z,5.35
2023-01-19T01:19:11.603Z,5.80
2023-01-19T01:21:40.178Z,5.57
2023-01-19T01:24:09.818Z,5.68
2023-01-19T01:26:38.817Z,6.32
2023-01-19T01:29:07.838Z,6.22
2023-01-19T01:31:36.770Z,5.95
2023-01-19T01:34:05.590Z,6.63
2023-01-19T01:36:34.780Z,5.45
2023-01-19T01:39:03.775Z,6.20
2023-01-19T01:41:32.428Z,6.45
2023-01-19T01:44:03.032Z,6.32
2023-01-19T01:46:33.062Z,6.00
2023-01-19T01:49:15.829Z,6.53
2023-01-19T01:51:48.738Z,6.63
2023-01-19T01:54:30.054Z,6.20
2023-01-19T01:57:02.586Z,5.45
2023-01-19T01:59:40.414Z,6.05
2023-01-19T02:02:35.356Z,5.30
2023-01-19T02:05:11.335Z,5.93
2023-01-19T02:08:06.870Z,5.82
2023-01-19T02:10:53.752Z,5.45
2023-01-19T02:13:22.944Z,5.18
2023-01-19T02:15:56.719Z,5.88
2023-01-19T02:18:28.663Z,5.65
2023-01-19T02:21:14.275Z,6.20
2023-01-19T02:23:46.194Z,6.10
2023-01-19T02:26:36.977Z,6.47
2023-01-19T02:29:09.465Z,5.70
2023-01-19T02:31:40.327Z,5.97
2023-01-19T02:34:17.639Z,5.88
2023-01-19T02:36:55.627Z,5.80
2023-01-19T02:39:34.454Z,6.00
2023-01-19T02:42:06.416Z,5.03
2023-01-19T02:44:35.645Z,5.50
2023-01-19T02:47:05.313Z,4.70
2023-01-19T02:49:33.905Z,5.18
2023-01-19T02:52:02.731Z,5.53
2023-01-19T02:54:49.579Z,5.57
2023-01-19T02:57:49.361Z,5.30
2023-01-19T03:00:56.007Z,5.88
2023-01-19T03:04:17.555Z,5.22
2023-01-19T03:06:54.560Z,4.93
2023-01-19T03:09:47.640Z,5.25
2023-01-19T03:12:37.651Z,5.05
2023-01-19T03:15:34.022Z,5.30
2023-01-19T03:18:03.834Z,5.53
2023-01-19T03:20:32.487Z,5.22
2023-01-19T03:23:05.116Z,5.70
2023-01-19T03:25:36.196Z,5.23
2023-01-19T03:28:05.886Z,5.63
2023-01-19T03:30:38.465Z,6.05
2023-01-19T03:33:12.333Z,5.70
2023-01-19T03:35:47.255Z,5.65
2023-01-19T03:38:18.716Z,6.10
2023-01-19T03:40:48.307Z,5.80
2023-01-19T03:43:18.308Z,6.32
2023-01-19T03:45:47.204Z,6.28
2023-01-19T03:48:15.834Z,6.32
2023-01-19T03:50:44.257Z,6.35
2023-01-19T03:53:14.779Z,6.55
2023-01-19T03:55:44.862Z,6.43
2023-01-19T03:58:13.726Z,6.72
2023-01-19T04:00:42.586Z,6.25
2023-01-19T04:03:18.702Z,6.30
2023-01-19T04:05:48.036Z,6.43
2023-01-19T04:08:17.046Z,6.97
2023-01-19T04:10:45.677Z,6.55
2023-01-19T04:13:14.287Z,7.30
2023-01-19T04:15:43.128Z,6.50
2023-01-19T04:18:11.898Z,6.55
2023-01-19T04:20:40.572Z,6.53
2023-01-19T04:23:09.218Z,6.82
2023-01-19T04:25:38.964Z,7.82
2023-01-19T04:28:07.831Z,6.32
2023-01-19T04:30:36.477Z,6.18
2023-01-19T04:33:05.044Z,6.05
2023-01-19T04:35:35.597Z,5.70
2023-01-19T04:38:03.766Z,6.68
2023-01-19T04:40:32.493Z,6.50
2023-01-19T04:43:01.569Z,6.65
2023-01-19T04:45:30.300Z,5.63
2023-01-19T04:47:58.956Z,6.65
2023-01-19T04:50:27.270Z,5.50
2023-01-19T04:52:55.788Z,6.22
2023-01-19T04:55:24.435Z,6.65
2023-01-19T04:57:52.748Z,6.47
2023-01-19T05:00:22.139Z,5.60
2023-01-19T05:02:51.063Z,6.25
2023-01-19T05:05:20.209Z,6.22
2023-01-19T05:07:48.913Z,5.97
2023-01-19T05:10:18.047Z,6.10
2023-01-19T05:12:46.633Z,5.40
2023-01-19T05:15:15.251Z,5.40
2023-01-19T05:17:43.822Z,5.53
2023-01-19T05:20:15.909Z,5.72
2023-01-19T05:22:45.267Z,6.88
2023-01-19T05:25:13.775Z,6.13
2023-01-19T05:27:41.743Z,5.85
2023-01-19T05:30:11.202Z,6.30
2023-01-19T05:32:39.978Z,5.72
2023-01-19T05:35:08.793Z,5.38
2023-01-19T05:37:37.439Z,5.88
2023-01-19T05:40:06.966Z,6.07
2023-01-19T05:42:35.616Z,6.47
2023-01-19T05:45:04.211Z,5.28
2023-01-19T05:47:33.607Z,6.55
2023-01-19T05:50:02.165Z,6.28
2023-01-19T05:52:30.816Z,6.30
2023-01-19T05:54:59.588Z,6.18
2023-01-19T05:57:28.150Z,6.97
2023-01-19T05:59:56.799Z,6.82
2023-01-19T06:02:29.938Z,5.78
2023-01-19T06:04:58.869Z,6.38
2023-01-19T06:07:29.265Z,6.22
2023-01-19T06:09:57.938Z,6.40
2023-01-19T06:12:26.212Z,6.03
2023-01-19T06:14:54.487Z,6.22
2023-01-19T06:17:23.414Z,5.78
2023-01-19T06:19:52.005Z,5.47
2023-01-19T06:22:19.934Z,6.13
2023-01-19T06:24:48.217Z,6.18
2023-01-19T06:27:16.845Z,6.20
2023-01-19T06:29:45.400Z,6.13
2023-01-19T06:32:13.753Z,6.50
2023-01-19T06:34:44.984Z,5.53
2023-01-19T06:37:13.487Z,5.90
2023-01-19T06:39:42.517Z,6.03
2023-01-19T06:42:10.807Z,6.10
2023-01-19T06:44:39.419Z,5.60
2023-01-19T06:47:15.723Z,5.97
2023-01-19T06:49:44.840Z,5.63
2023-01-19T06:52:16.883Z,5.47
2023-01-19T06:54:47.505Z,5.18
2023-01-19T06:57:16.633Z,5.28
2023-01-19T06:59:46.118Z,5.72
2023-01-19T07:02:27.936Z,5.32
2023-01-19T07:05:00.240Z,5.80
2023-01-19T07:07:29.474Z,6.20
2023-01-19T07:09:58.519Z,6.35
2023-01-19T07:12:27.307Z,6.45
2023-01-19T07:14:55.933Z,6.25
2023-01-19T07:17:24.539Z,6.32
2023-01-19T07:19:53.305Z,6.38
2023-01-19T07:22:21.481Z,5.82
2023-01-19T07:24:49.483Z,6.72
2023-01-19T07:27:18.107Z,6.57
2023-01-19T07:29:46.942Z,5.82
2023-01-19T07:32:16.147Z,6.05
2023-01-19T07:34:44.368Z,5.63
2023-01-19T07:37:13.004Z,5.95
2023-01-19T07:39:41.139Z,6.00
2023-01-19T07:42:09.709Z,5.93
2023-01-19T07:44:38.446Z,5.72
2023-01-19T07:47:12.851Z,6.00
2023-01-19T07:49:41.495Z,6.03
2023-01-19T07:52:10.852Z,6.22
2023-01-19T07:54:40.079Z,6.03
2023-01-19T07:57:08.251Z,6.57
2023-01-19T07:59:36.608Z,6.82
2023-01-19T08:02:05.361Z,5.85
2023-01-19T08:04:34.607Z,6.32
2023-01-19T08:07:04.750Z,6.65
2023-01-19T08:09:33.355Z,6.57
2023-01-19T08:12:01.976Z,6.18
2023-01-19T08:14:31.189Z,5.80
2023-01-19T08:17:03.305Z,5.47
2023-01-19T08:19:31.896Z,6.18
2023-01-19T08:22:00.759Z,6.38
2023-01-19T08:24:30.294Z,6.13
2023-01-19T08:27:02.965Z,6.57
2023-01-19T08:29:35.066Z,6.07
2023-01-19T08:32:04.051Z,5.70
2023-01-19T08:34:32.919Z,6.88
2023-01-19T08:37:01.676Z,5.68
2023-01-19T08:39:30.431Z,5.82
2023-01-19T08:42:00.131Z,6.00
2023-01-19T08:44:29.388Z,5.93
2023-01-19T08:46:58.125Z,5.53
2023-01-19T08:49:26.741Z,5.47
2023-01-19T08:51:55.509Z,5.47
2023-01-19T08:54:24.592Z,5.72
2023-01-19T08:56:53.161Z,5.75
2023-01-19T08:59:22.065Z,5.70
2023-01-19T09:01:50.704Z,5.97
2023-01-19T09:04:19.788Z,5.70
2023-01-19T09:06:48.091Z,5.32
2023-01-19T09:09:16.860Z,5.45
2023-01-19T09:11:45.539Z,5.57
2023-01-19T09:14:13.984Z,4.88
2023-01-19T09:16:42.379Z,5.50
2023-01-19T09:19:10.962Z,4.95
2023-01-19T09:21:39.904Z,4.65
2023-01-19T09:24:08.493Z,4.85
2023-01-19T09:26:37.941Z,4.57
2023-01-19T09:29:06.563Z,5.55
2023-01-19T09:31:35.329Z,5.05
2023-01-19T09:34:03.540Z,4.70
2023-01-19T09:36:33.708Z,5.82
2023-01-19T09:39:01.982Z,5.82
2023-01-19T09:41:31.319Z,5.50
2023-01-19T09:44:01.767Z,5.25
2023-01-19T09:46:36.620Z,5.03
2023-01-19T09:49:17.461Z,6.03
2023-01-19T09:51:48.826Z,5.55
2023-01-19T09:54:40.523Z,5.25
2023-01-19T09:57:13.950Z,5.38
2023-01-19T09:59:45.192Z,5.70
2023-01-19T10:02:54.286Z,5.50
2023-01-19T10:05:39.397Z,6.05
2023-01-19T10:08:43.422Z,6.13
2023-01-19T10:11:24.207Z,5.22
2023-01-19T10:13:55.674Z,5.40
2023-01-19T10:16:27.290Z,5.97
2023-01-19T10:19:01.373Z,6.50
2023-01-19T10:21:32.823Z,6.20
2023-01-19T10:24:16.125Z,6.28
2023-01-19T10:26:49.119Z,5.70
2023-01-19T10:29:38.774Z,6.30
2023-01-19T10:32:15.000Z,7.80
2023-01-19T10:34:43.837Z,6.28
2023-01-19T10:37:26.916Z,7.90
2023-01-19T10:40:24.292Z,6.65
2023-01-19T10:42:52.561Z,6.68
2023-01-19T10:45:23.576Z,7.18
2023-01-19T10:47:54.126Z,7.72
2023-01-19T10:50:28.022Z,6.47
2023-01-19T10:52:59.560Z,7.20
2023-01-19T10:55:31.751Z,8.02
2023-01-19T10:58:00.980Z,7.35
2023-01-19T11:00:43.436Z,7.28
2023-01-19T11:03:25.433Z,7.82
2023-01-19T11:05:54.518Z,8.05
2023-01-19T11:08:31.567Z,7.47
2023-01-19T11:11:05.817Z,8.55
2023-01-19T11:13:34.646Z,8.50
2023-01-19T11:16:23.811Z,9.48
2023-01-19T11:18:56.831Z,8.63
2023-01-19T11:21:28.516Z,9.43
2023-01-19T11:24:02.380Z,9.38
2023-01-19T11:26:58.752Z,9.93
2023-01-19T11:29:28.221Z,8.93
2023-01-19T11:31:59.137Z,8.25
2023-01-19T11:34:34.670Z,9.73
2023-01-19T11:37:18.937Z,7.90
2023-01-19T11:39:52.757Z,7.35
2023-01-19T11:42:22.019Z,9.23
2023-01-19T11:45:08.319Z,9.07
2023-01-19T11:47:53.398Z,8.85
2023-01-19T11:50:26.767Z,6.90
2023-01-19T11:53:07.149Z,7.13
2023-01-19T11:55:42.906Z,8.02
2023-01-19T11:58:18.989Z,6.63
2023-01-19T12:00:58.729Z,7.15
2023-01-19T12:03:32.177Z,8.60
2023-01-19T12:08:57.243Z,6.80
2023-01-19T12:11:36.283Z,6.95
2023-01-19T12:14:05.229Z,7.35
2023-01-19T12:16:35.640Z,6.57
2023-01-19T12:19:19.861Z,7.85
2023-01-19T12:21:49.761Z,6.82
2023-01-19T12:24:24.345Z,6.70
2023-01-19T12:27:35.368Z,7.00
2023-01-19T12:30:04.209Z,8.23
2023-01-19T12:32:38.325Z,7.18
2023-01-19T12:35:10.952Z,6.05
2023-01-19T12:37:42.417Z,7.25
2023-01-19T12:40:25.543Z,7.68
2023-01-19T12:43:02.860Z,7.07
2023-01-19T12:45:36.119Z,6.80
2023-01-19T12:48:05.371Z,6.45
2023-01-19T12:50:39.338Z,6.63
2023-01-19T12:53:18.187Z,6.57
2023-01-19T12:55:48.710Z,7.80
2023-01-19T12:58:24.900Z,7.88
2023-01-19T13:01:14.721Z,7.70
2023-01-19T13:03:44.778Z,6.60
2023-01-19T13:06:13.575Z,7.10
2023-01-19T13:08:59.667Z,8.50
2023-01-19T13:11:33.297Z,7.47
2023-01-19T13:14:03.130Z,7.65
2023-01-19T13:16:31.659Z,8.98
2023-01-19T13:19:09.913Z,8.38
2023-01-19T13:21:44.411Z,8.02
2023-01-19T13:24:24.999Z,7.60
2023-01-19T13:26:53.533Z,8.70
2023-01-19T13:29:42.808Z,8.90
2023-01-19T13:32:20.693Z,8.82
2023-01-19T13:35:00.529Z,8.50
2023-01-19T13:37:41.102Z,8.52
2023-01-19T13:40:20.650Z,8.88
2023-01-19T13:42:49.844Z,8.55
2023-01-19T13:45:18.406Z,8.13
2023-01-19T13:47:49.547Z,8.50
2023-01-19T13:50:26.256Z,7.80
2023-01-19T13:52:56.984Z,9.93
2023-01-19T13:55:26.140Z,8.73
2023-01-19T13:57:55.579Z,8.52
2023-01-19T14:00:25.622Z,9.98
2023-01-19T14:03:15.370Z,10.07
2023-01-19T14:05:45.006Z,9.77
2023-01-19T14:08:16.467Z,9.48
2023-01-19T14:10:47.823Z,10.05
2023-01-19T14:13:36.463Z,10.25
2023-01-19T14:16:12.343Z,9.60
2023-01-19T14:18:41.070Z,9.57
2023-01-19T14:21:13.511Z,9.75
2023-01-19T14:24:09.283Z,9.98
2023-01-19T14:26:47.421Z,9.85
2023-01-19T14:29:39.004Z,10.48
2023-01-19T14:32:25.149Z,9.80
2023-01-19T14:35:06.287Z,8.82
2023-01-19T14:37:37.603Z,9.35
2023-01-19T14:40:20.403Z,8.80
2023-01-19T14:43:15.201Z,9.52
2023-01-19T14:45:48.912Z,9.30
2023-01-19T14:48:20.205Z,8.60
2023-01-19T14:51:02.755Z,9.57
2023-01-19T14:53:39.276Z,10.05
2023-01-19T14:56:09.062Z,8.80
2023-01-19T14:58:37.485Z,9.95
2023-01-19T15:01:07.889Z,9.68
2023-01-19T15:03:45.595Z,9.70
2023-01-19T15:06:20.907Z,9.07
2023-01-19T15:08:51.424Z,9.20
2023-01-19T15:11:30.933Z,10.10
2023-01-19T15:14:00.421Z,10.13
2023-01-19T15:16:31.659Z,10.68
2023-01-19T15:19:00.272Z,10.00
2023-01-19T15:21:28.836Z,9.98
2023-01-19T15:23:59.430Z,12.25
2023-01-19T15:26:28.870Z,10.85
2023-01-19T15:28:58.224Z,12.45
2023-01-19T15:31:27.646Z,10.50
2023-01-19T15:33:56.066Z,10.32
2023-01-19T15:36:25.615Z,11.10
2023-01-19T15:38:54.270Z,12.05
2023-01-19T15:41:26.715Z,9.60
2023-01-19T15:43:55.490Z,11.10
2023-01-19T15:46:25.051Z,10.32
2023-01-19T15:48:54.432Z,9.82
2023-01-19T15:51:26.906Z,11.02
2023-01-19T15:53:56.278Z,10.35
2023-01-19T15:56:26.997Z,9.73
2023-01-19T15:58:56.515Z,10.00
2023-01-19T16:01:32.822Z,10.38
2023-01-19T16:04:07.133Z,9.35
2023-01-19T16:06:36.102Z,9.55
2023-01-19T16:09:21.374Z,9.90
2023-01-19T16:11:50.215Z,8.95
2023-01-19T16:14:18.359Z,10.25
2023-01-19T16:16:47.537Z,9.57
2023-01-19T16:19:17.434Z,10.00
2023-01-19T16:21:45.490Z,9.93
2023-01-19T16:24:14.229Z,10.30
2023-01-19T16:26:42.799Z,9.25
2023-01-19T16:29:12.258Z,9.48
2023-01-19T16:31:42.838Z,9.48
2023-01-19T16:34:11.715Z,9.85
2023-01-19T16:36:42.656Z,9.32
2023-01-19T16:39:14.011Z,9.98
2023-01-19T16:41:42.850Z,9.13
2023-01-19T16:44:16.464Z,9.50
2023-01-19T16:49:17.399Z,8.82
2023-01-19T16:51:46.903Z,9.25
2023-01-19T16:54:17.302Z,9.82
2023-01-19T16:56:45.888Z,9.73
2023-01-19T16:59:16.642Z,9.70
2023-01-19T17:01:46.482Z,9.18
2023-01-19T17:04:15.226Z,11.95
2023-01-19T17:06:44.130Z,11.18
2023-01-19T17:09:12.774Z,11.00
2023-01-19T17:11:42.171Z,9.80
2023-01-19T17:14:19.295Z,11.43
2023-01-19T17:16:48.189Z,10.40
2023-01-19T17:19:22.297Z,11.10
2023-01-19T17:21:51.982Z,11.18
2023-01-19T17:24:20.709Z,11.40
2023-01-19T17:26:50.065Z,10.77
2023-01-19T17:29:19.176Z,10.18
2023-01-19T17:31:52.558Z,11.15
2023-01-19T17:34:21.012Z,10.38
2023-01-19T17:36:51.653Z,11.43
2023-01-19T17:39:20.001Z,14.00
2023-01-19T17:41:50.278Z,15.02
2023-01-19T17:44:19.864Z,15.98
2023-01-19T17:46:48.549Z,15.63
2023-01-19T17:49:17.283Z,15.80
2023-01-19T17:51:46.070Z,15.38
2023-01-19T17:54:15.346Z,14.82
2023-01-19T17:56:44.140Z,13.48
2023-01-19T17:59:12.823Z,12.20
2023-01-19T18:01:41.650Z,11.90
2023-01-19T18:04:11.186Z,11.32
2023-01-19T18:06:40.989Z,10.90
2023-01-19T18:09:09.815Z,10.80
2023-01-19T18:11:38.407Z,10.82
2023-01-19T18:14:08.031Z,10.18
2023-01-19T18:16:37.262Z,10.48
2023-01-19T18:19:05.949Z,10.93
2023-01-19T18:21:34.609Z,10.35
2023-01-19T18:24:05.199Z,9.98
2023-01-19T18:26:35.865Z,11.13
2023-01-19T18:29:04.635Z,10.75
2023-01-19T18:31:33.326Z,11.07
2023-01-19T18:34:01.771Z,12.18
2023-01-19T18:36:33.244Z,12.70
2023-01-19T18:39:03.445Z,13.95
2023-01-19T18:41:32.252Z,13.05
2023-01-19T18:44:00.987Z,11.80
2023-01-19T18:46:29.372Z,10.70
2023-01-19T18:48:57.987Z,10.93
2023-01-19T18:51:26.597Z,11.40
2023-01-19T18:53:55.431Z,10.75
2023-01-19T18:56:23.786Z,11.00
2023-01-19T18:58:54.352Z,10.73
2023-01-19T19:01:27.594Z,10.15
2023-01-19T19:03:57.136Z,9.80
2023-01-19T19:06:28.387Z,9.32
2023-01-19T19:08:58.697Z,9.65
2023-01-19T19:11:28.074Z,9.45
2023-01-19T19:13:59.560Z,9.45
2023-01-19T19:16:28.726Z,9.52
2023-01-19T19:18:57.397Z,8.73
2023-01-19T19:21:26.717Z,9.15
2023-01-19T19:23:57.496Z,8.43
2023-01-19T19:26:27.286Z,7.22
2023-01-19T19:28:55.888Z,7.07
2023-01-19T19:31:27.364Z,7.57
2023-01-19T19:33:57.178Z,7.28
2023-01-19T19:36:27.264Z,7.47
2023-01-19T19:38:56.025Z,7.32
2023-01-19T19:41:28.899Z,7.25
2023-01-19T19:43:57.901Z,7.30
2023-01-19T19:46:27.724Z,7.18
2023-01-19T19:48:56.849Z,7.30
2023-01-19T19:51:27.881Z,7.40
2023-01-19T19:53:58.777Z,6.80
2023-01-19T19:56:29.776Z,6.85
2023-01-19T19:59:00.165Z,6.50
2023-01-19T20:01:32.978Z,6.82
2023-01-19T20:04:08.703Z,6.82
2023-01-19T20:06:40.181Z,6.93
2023-01-19T20:09:11.326Z,7.55
2023-01-19T20:11:40.123Z,6.90
2023-01-19T20:14:09.649Z,7.32
2023-01-19T20:16:38.784Z,7.03
2023-01-19T20:19:07.985Z,7.07
2023-01-19T20:21:43.060Z,6.10
2023-01-19T20:24:21.922Z,5.75
2023-01-19T20:26:53.604Z,5.72
2023-01-19T20:29:22.086Z,6.00
2023-01-19T20:31:53.722Z,5.65
2023-01-19T20:34:24.256Z,5.43
2023-01-19T20:36:55.149Z,5.40
2023-01-19T20:39:24.710Z,5.53
2023-01-19T20:41:53.946Z,5.55
2023-01-19T20:44:25.129Z,5.72
2023-01-19T20:46:54.738Z,5.07
2023-01-19T20:49:23.347Z,5.25
2023-01-19T20:51:52.810Z,4.93
2023-01-19T20:54:24.341Z,4.95
2023-01-19T20:56:53.228Z,5.10
2023-01-19T20:59:21.824Z,4.43
2023-01-19T21:01:50.830Z,4.55
2023-01-19T21:04:19.964Z,4.40
2023-01-19T21:06:48.886Z,4.32
2023-01-19T21:09:17.077Z,4.38
2023-01-19T21:11:45.789Z,4.45
2023-01-19T21:14:14.345Z,3.85
2023-01-19T21:16:43.422Z,4.53
2023-01-19T21:19:12.122Z,4.28
2023-01-19T21:21:40.743Z,3.55
2023-01-19T21:24:11.298Z,3.97
2023-01-19T21:26:40.127Z,3.90
2023-01-19T21:29:08.710Z,4.13
2023-01-19T21:31:37.459Z,4.85
2023-01-19T21:34:06.130Z,4.82
2023-01-19T21:36:34.760Z,4.55
2023-01-19T21:39:03.075Z,4.57
2023-01-19T21:41:31.518Z,4.97
2023-01-19T21:44:01.814Z,4.68
2023-01-19T21:46:31.784Z,3.97
2023-01-19T21:49:06.264Z,4.15
2023-01-19T21:51:36.418Z,4.18
2023-01-19T21:54:06.583Z,4.20
2023-01-19T21:56:35.329Z,4.30
2023-01-19T21:59:04.711Z,4.20
2023-01-19T22:01:34.217Z,4.22
2023-01-19T22:04:03.373Z,4.47
2023-01-19T22:06:31.514Z,4.30
2023-01-19T22:09:01.567Z,3.80
2023-01-19T22:11:30.221Z,4.00
2023-01-19T22:14:00.968Z,4.35
2023-01-19T22:16:31.299Z,4.35
2023-01-19T22:19:03.601Z,3.70
2023-01-19T22:21:34.523Z,3.70
2023-01-19T22:24:04.112Z,3.63
2023-01-19T22:26:35.339Z,4.10
2023-01-19T22:29:05.638Z,4.07
2023-01-19T22:31:34.407Z,3.80
2023-01-19T22:34:02.900Z,3.72
2023-01-19T22:36:34.749Z,3.67
2023-01-19T22:39:06.468Z,3.65
2023-01-19T22:41:36.886Z,4.05
2023-01-19T22:44:12.236Z,4.05
2023-01-19T22:46:40.893Z,3.25
2023-01-19T22:49:11.477Z,3.65
2023-01-19T22:51:40.099Z,3.63
2023-01-19T22:54:08.812Z,3.25
2023-01-19T22:56:39.447Z,3.28
2023-01-19T22:59:08.181Z,3.38
2023-01-19T23:01:42.435Z,3.50
2023-01-19T23:04:17.249Z,3.22
2023-01-19T23:06:50.160Z,3.00
2023-01-19T23:09:19.157Z,3.17
2023-01-19T23:11:51.399Z,3.13
2023-01-19T23:14:22.258Z,2.92
2023-01-19T23:16:51.150Z,2.85
2023-01-19T23:19:20.102Z,3.25
2023-01-19T23:21:51.407Z,2.72
2023-01-19T23:24:19.825Z,2.72
2023-01-19T23:26:51.356Z,2.72
2023-01-19T23:29:20.960Z,2.88
2023-01-19T23:31:50.377Z,2.70
2023-01-19T23:34:19.314Z,2.85
2023-01-19T23:36:47.707Z,2.92
2023-01-19T23:39:21.457Z,2.55
2023-01-19T23:41:49.814Z,2.50
2023-01-19T23:44:18.889Z,2.70
2023-01-19T23:46:47.828Z,2.72
2023-01-19T23:49:16.587Z,2.67
2023-01-19T23:51:44.786Z,2.45
2023-01-19T23:54:13.081Z,2.40
2023-01-19T23:56:43.806Z,2.67
2023-01-19T23:59:14.848Z,2.35
